Time;durP1;ratioP1;P1;durP2;ratioP2;P2;SDS_P1;SDS_P2;PMS_P1;PMS_P2;Temp;Humidity;BMP_temperature;BMP_pressure;BME280_temperature;BME280_humidity;BME280_pressure;Samples;Min_cycle;Max_cycle;Signal;HPM_P1;HPM_P2
2021/04/19 00:01:29;;;;;;;12.17;8.90;;;12.00;99.90;;;;;;5091756;28;20221;-79
2021/04/19 00:03:54;;;;;;;14.60;8.70;;;12.00;99.90;;;;;;5077438;28;20425;-78
2021/04/19 00:06:20;;;;;;;12.60;8.80;;;12.00;99.90;;;;;;5087445;28;20185;-78
2021/04/19 00:08:46;;;;;;;11.50;9.53;;;11.90;99.90;;;;;;5087367;28;20242;-78
2021/04/19 00:11:12;;;;;;;10.10;8.90;;;11.90;99.90;;;;;;5064430;28;20441;-77
2021/04/19 00:13:38;;;;;;;16.83;9.23;;;11.80;99.90;;;;;;5064153;28;20280;-78
2021/04/19 00:16:04;;;;;;;15.97;8.90;;;11.70;99.90;;;;;;5068434;28;20435;-77
2021/04/19 00:18:30;;;;;;;11.83;9.60;;;11.80;99.90;;;;;;5081189;28;21036;-78
2021/04/19 00:20:55;;;;;;;10.90;9.20;;;11.80;99.90;;;;;;5062880;28;20181;-77
2021/04/19 00:23:21;;;;;;;11.00;7.70;;;11.80;99.90;;;;;;5074316;28;20174;-77
2021/04/19 00:25:46;;;;;;;11.00;9.13;;;11.80;99.90;;;;;;5075241;28;20627;-77
2021/04/19 00:28:13;;;;;;;19.67;7.83;;;11.70;99.90;;;;;;5074853;28;20214;-78
2021/04/19 00:30:39;;;;;;;10.83;8.73;;;11.70;99.90;;;;;;5073152;28;20423;-78
2021/04/19 00:33:05;;;;;;;12.13;9.10;;;11.70;99.90;;;;;;5080185;28;20220;-79
2021/04/19 00:35:30;;;;;;;10.20;8.90;;;11.70;99.90;;;;;;5073313;28;20261;-77
2021/04/19 00:37:56;;;;;;;18.90;9.90;;;11.60;99.90;;;;;;5076608;28;20423;-77
2021/04/19 00:40:22;;;;;;;18.40;10.83;;;11.60;99.90;;;;;;5074832;28;20631;-78
2021/04/19 00:42:49;;;;;;;13.27;9.40;;;11.60;99.90;;;;;;5073352;28;20194;-78
2021/04/19 00:45:16;;;;;;;11.60;10.40;;;11.50;99.90;;;;;;5073363;28;20178;-76
2021/04/19 00:47:45;;;;;;;10.97;9.50;;;11.50;99.90;;;;;;5074752;28;20423;-78
2021/04/19 00:50:13;;;;;;;19.67;10.47;;;11.40;99.90;;;;;;5075097;28;20411;-78
2021/04/19 00:52:39;;;;;;;12.27;9.33;;;11.40;99.90;;;;;;5073634;28;20504;-77
2021/04/19 00:55:10;;;;;;;13.23;9.03;;;11.40;99.90;;;;;;5073342;28;20454;-77
2021/04/19 00:57:37;;;;;;;14.03;9.67;;;11.40;99.90;;;;;;5072020;28;20170;-78
2021/04/19 01:00:11;;;;;;;11.70;8.90;;;11.30;99.90;;;;;;5068157;28;20421;-77
2021/04/19 01:02:39;;;;;;;16.23;10.00;;;11.30;99.90;;;;;;5071018;28;20447;-77
2021/04/19 01:05:12;;;;;;;15.40;9.60;;;11.30;99.90;;;;;;5071535;28;20924;-77
2021/04/19 01:07:38;;;;;;;13.83;8.83;;;11.30;99.90;;;;;;5071397;28;20434;-77
2021/04/19 01:10:04;;;;;;;12.03;9.63;;;11.30;99.90;;;;;;5072317;28;20412;-77
2021/04/19 01:12:29;;;;;;;10.30;9.20;;;11.20;99.90;;;;;;5073965;28;20198;-77
2021/04/19 01:14:56;;;;;;;12.17;9.17;;;11.20;99.90;;;;;;5074032;28;20509;-78
2021/04/19 01:17:21;;;;;;;11.73;9.10;;;11.10;99.90;;;;;;5074164;28;20255;-78
2021/04/19 01:19:47;;;;;;;10.50;9.40;;;11.00;99.90;;;;;;5070865;28;20448;-77
2021/04/19 01:22:12;;;;;;;14.30;10.67;;;11.00;99.90;;;;;;5071404;28;20244;-77
2021/04/19 01:24:38;;;;;;;12.40;9.47;;;10.90;99.90;;;;;;5071454;28;20170;-77
2021/04/19 01:27:05;;;;;;;11.77;8.77;;;10.90;99.90;;;;;;5071159;28;20244;-77
2021/04/19 01:29:31;;;;;;;10.57;9.10;;;11.00;99.90;;;;;;5071234;28;20178;-77
2021/04/19 01:31:56;;;;;;;13.40;10.73;;;10.80;99.90;;;;;;5071200;28;20798;-77
2021/04/19 01:34:22;;;;;;;11.10;9.27;;;10.90;99.90;;;;;;5069859;28;20201;-77
2021/04/19 01:36:48;;;;;;;11.63;9.60;;;10.90;99.90;;;;;;5074532;28;20624;-77
2021/04/19 01:39:16;;;;;;;10.80;8.90;;;10.80;99.90;;;;;;5075657;28;20188;-77
2021/04/19 01:41:46;;;;;;;13.70;8.87;;;10.80;99.90;;;;;;5077318;28;20457;-78
2021/04/19 01:44:13;;;;;;;13.33;8.30;;;10.80;99.90;;;;;;5074955;28;20469;-77
2021/04/19 01:46:40;;;;;;;12.80;9.70;;;10.80;99.90;;;;;;5075408;28;20857;-77
2021/04/19 01:49:18;;;;;;;13.53;9.90;;;10.80;99.90;;;;;;5076865;28;20419;-78
2021/04/19 01:51:46;;;;;;;18.10;10.20;;;10.80;99.90;;;;;;5079141;28;20472;-77
2021/04/19 01:54:12;;;;;;;12.60;10.60;;;10.80;99.90;;;;;;5078455;28;20447;-77
2021/04/19 01:56:38;;;;;;;12.90;9.63;;;10.80;99.90;;;;;;5059443;28;20428;-78
2021/04/19 01:59:05;;;;;;;14.03;10.40;;;10.70;99.90;;;;;;5078624;28;20411;-77
2021/04/19 02:01:33;;;;;;;12.07;10.10;;;10.70;99.90;;;;;;5075180;28;20431;-77
2021/04/19 02:04:13;;;;;;;15.40;10.70;;;10.70;99.90;;;;;;5078151;28;20427;-78
2021/04/19 02:06:43;;;;;;;16.40;9.47;;;10.70;99.90;;;;;;5076038;28;21106;-78
2021/04/19 02:09:34;;;;;;;16.70;10.03;;;10.60;99.90;;;;;;5076142;28;20503;-78
2021/04/19 02:12:04;;;;;;;13.97;10.67;;;10.60;99.90;;;;;;5076281;28;20458;-78
2021/04/19 02:14:38;;;;;;;16.37;10.80;;;10.50;99.90;;;;;;5071711;28;20459;-77
2021/04/19 02:17:13;;;;;;;11.37;9.43;;;10.50;99.90;;;;;;5077651;28;20487;-76
2021/04/19 02:20:09;;;;;;;18.13;10.90;;;10.50;99.90;;;;;;5076504;28;20407;-77
2021/04/19 02:22:42;;;;;;;14.80;9.27;;;10.40;99.90;;;;;;5076206;28;20462;-77
2021/04/19 02:25:40;;;;;;;12.03;8.80;;;10.40;99.90;;;;;;5075147;28;21090;-77
2021/04/19 02:28:29;;;;;;;15.70;9.43;;;10.30;99.90;;;;;;5072155;28;20837;-77
2021/04/19 02:30:59;;;;;;;15.27;8.00;;;10.40;99.90;;;;;;5075855;28;20943;-77
2021/04/19 02:33:30;;;;;;;12.13;8.63;;;10.30;99.90;;;;;;5076278;28;20461;-76
2021/04/19 02:35:56;;;;;;;23.63;9.23;;;10.30;99.90;;;;;;5075728;28;20420;-78
2021/04/19 02:38:29;;;;;;;11.83;8.43;;;10.20;99.90;;;;;;5074904;28;20419;-79
2021/04/19 02:40:58;;;;;;;12.90;9.07;;;10.10;99.90;;;;;;5076477;28;20432;-77
2021/04/19 02:43:25;;;;;;;11.63;8.70;;;10.10;99.90;;;;;;5076247;28;20448;-77
2021/04/19 02:45:52;;;;;;;11.80;8.33;;;10.10;99.90;;;;;;5076321;28;20420;-77
2021/04/19 02:48:22;;;;;;;11.57;9.67;;;10.10;99.90;;;;;;5073798;28;20436;-77
2021/04/19 02:50:49;;;;;;;12.23;8.77;;;10.00;99.90;;;;;;5073659;28;20444;-77
2021/04/19 02:53:15;;;;;;;11.03;9.73;;;10.00;99.90;;;;;;5073351;28;20429;-77
2021/04/19 02:55:42;;;;;;;16.77;11.60;;;9.90;99.90;;;;;;5075657;28;20465;-77
2021/04/19 02:58:10;;;;;;;16.10;11.67;;;10.00;99.90;;;;;;5077222;28;20416;-77
2021/04/19 03:00:46;;;;;;;17.57;10.47;;;10.00;99.90;;;;;;5076148;28;20419;-76
2021/04/19 03:03:18;;;;;;;23.70;11.53;;;10.00;99.90;;;;;;5073905;28;20456;-77
2021/04/19 03:05:45;;;;;;;15.50;11.30;;;9.90;99.90;;;;;;5073161;28;20781;-77
2021/04/19 03:08:21;;;;;;;13.00;11.63;;;9.80;99.90;;;;;;5075582;28;20409;-77
2021/04/19 03:11:13;;;;;;;15.20;11.80;;;9.90;99.90;;;;;;5076836;28;20439;-77
2021/04/19 03:13:41;;;;;;;20.93;13.67;;;9.80;99.90;;;;;;5067072;28;20449;-77
2021/04/19 03:16:08;;;;;;;20.90;13.27;;;9.80;99.90;;;;;;5075914;28;20417;-77
2021/04/19 03:18:36;;;;;;;17.57;12.83;;;9.70;99.90;;;;;;5073524;28;20409;-77
2021/04/19 03:21:15;;;;;;;16.80;13.40;;;9.70;99.90;;;;;;5065587;28;20420;-77
2021/04/19 03:23:45;;;;;;;14.90;11.90;;;9.70;99.90;;;;;;5073471;28;20477;-77
2021/04/19 03:26:13;;;;;;;19.07;13.57;;;9.70;99.90;;;;;;5073674;28;20767;-77
2021/04/19 03:28:42;;;;;;;20.63;13.53;;;9.70;99.90;;;;;;5073492;28;20426;-77
2021/04/19 03:31:12;;;;;;;25.30;17.03;;;9.60;99.90;;;;;;5072993;28;20480;-77
2021/04/19 03:33:40;;;;;;;17.80;13.67;;;9.70;99.90;;;;;;5071959;28;20448;-77
2021/04/19 03:36:08;;;;;;;19.10;15.13;;;9.60;99.90;;;;;;5073495;28;20424;-77
2021/04/19 03:38:35;;;;;;;21.33;13.33;;;9.60;99.90;;;;;;5073582;28;20811;-76
2021/04/19 03:41:03;;;;;;;20.93;15.77;;;9.60;99.90;;;;;;5072606;28;20464;-77
2021/04/19 03:43:30;;;;;;;21.20;13.90;;;9.60;99.90;;;;;;5071998;28;20416;-77
2021/04/19 03:46:02;;;;;;;21.70;14.60;;;9.60;99.90;;;;;;5071801;28;20423;-76
2021/04/19 03:48:29;;;;;;;19.47;15.47;;;9.50;99.90;;;;;;5073340;28;20426;-77
2021/04/19 03:50:58;;;;;;;25.70;15.17;;;9.40;99.90;;;;;;5071646;28;20507;-77
2021/04/19 03:53:27;;;;;;;20.60;15.93;;;9.40;99.90;;;;;;5072929;28;20427;-77
2021/04/19 03:55:55;;;;;;;32.10;16.47;;;9.50;99.90;;;;;;5072924;28;20489;-77
2021/04/19 03:58:23;;;;;;;21.53;15.33;;;9.40;99.90;;;;;;5072434;28;20412;-77
2021/04/19 04:00:52;;;;;;;26.97;15.17;;;9.30;99.90;;;;;;5072324;28;20925;-77
2021/04/19 04:03:18;;;;;;;25.80;16.13;;;9.30;99.90;;;;;;5072781;28;20437;-77
2021/04/19 04:05:46;;;;;;;19.30;14.90;;;9.30;99.90;;;;;;5072734;28;20949;-77
2021/04/19 04:08:12;;;;;;;23.13;16.33;;;9.40;99.90;;;;;;5072638;28;20932;-77
2021/04/19 04:10:39;;;;;;;27.80;17.10;;;9.30;99.90;;;;;;5072286;28;20446;-77
2021/04/19 04:13:05;;;;;;;25.20;15.43;;;9.30;99.90;;;;;;5071404;28;20513;-77
2021/04/19 04:15:31;;;;;;;21.60;16.23;;;9.30;99.90;;;;;;5072539;28;20461;-77
2021/04/19 04:17:56;;;;;;;29.63;16.63;;;9.30;99.90;;;;;;5072293;28;20539;-77
2021/04/19 04:20:22;;;;;;;27.33;17.73;;;9.30;99.90;;;;;;5072062;28;20200;-77
2021/04/19 04:22:48;;;;;;;19.57;15.27;;;9.30;99.90;;;;;;5072616;28;20528;-77
2021/04/19 04:25:15;;;;;;;19.20;15.77;;;9.30;99.90;;;;;;5072409;28;20170;-77
2021/04/19 04:27:42;;;;;;;24.03;17.30;;;9.30;99.90;;;;;;5072264;28;20427;-77
2021/04/19 04:30:08;;;;;;;24.57;16.73;;;9.40;99.90;;;;;;5072006;28;20416;-77
2021/04/19 04:32:33;;;;;;;19.60;16.13;;;9.40;99.90;;;;;;5071531;28;20478;-77
2021/04/19 04:34:59;;;;;;;20.33;17.10;;;9.30;99.90;;;;;;5070860;28;20480;-77
2021/04/19 04:37:25;;;;;;;29.77;19.17;;;9.30;99.90;;;;;;5072359;28;20162;-77
2021/04/19 04:39:50;;;;;;;27.87;18.40;;;9.30;99.90;;;;;;5071753;28;20478;-77
2021/04/19 04:42:18;;;;;;;23.87;16.20;;;9.40;99.90;;;;;;5072006;28;20197;-77
2021/04/19 04:44:46;;;;;;;26.13;18.23;;;9.40;99.90;;;;;;5071821;28;20177;-77
2021/04/19 04:47:28;;;;;;;25.80;17.87;;;9.40;99.90;;;;;;5070505;28;20413;-77
2021/04/19 04:50:01;;;;;;;22.10;17.90;;;9.30;99.90;;;;;;5070464;28;20436;-76
2021/04/19 04:52:30;;;;;;;29.50;19.03;;;9.40;99.90;;;;;;5071719;28;20441;-77
2021/04/19 04:54:57;;;;;;;21.67;17.27;;;9.30;99.90;;;;;;5071974;28;20451;-77
2021/04/19 04:57:25;;;;;;;24.50;19.30;;;9.40;99.90;;;;;;5072051;28;20420;-77
2021/04/19 04:59:52;;;;;;;25.97;18.50;;;9.30;99.90;;;;;;5070206;28;20413;-77
2021/04/19 05:02:23;;;;;;;26.90;17.77;;;9.40;99.90;;;;;;5071148;28;20953;-77
2021/04/19 05:04:51;;;;;;;27.20;19.80;;;9.40;99.90;;;;;;5071547;28;20421;-77
2021/04/19 05:07:17;;;;;;;27.33;18.57;;;9.40;99.90;;;;;;5071794;28;20431;-77
2021/04/19 05:09:52;;;;;;;30.20;19.80;;;9.30;99.90;;;;;;5070123;28;20468;-77
2021/04/19 05:12:18;;;;;;;29.63;19.07;;;9.40;99.90;;;;;;5071572;28;20439;-77
2021/04/19 05:15:00;;;;;;;24.63;18.90;;;9.40;99.90;;;;;;5071242;28;20456;-77
2021/04/19 05:17:26;;;;;;;21.77;17.93;;;9.30;99.90;;;;;;5071928;28;20307;-77
2021/04/19 05:19:52;;;;;;;23.87;18.97;;;9.30;99.90;;;;;;5071573;28;20957;-77
2021/04/19 05:22:19;;;;;;;25.03;19.40;;;9.30;99.90;;;;;;5071308;28;20435;-76
2021/04/19 05:24:45;;;;;;;27.60;20.77;;;9.20;99.90;;;;;;5072441;28;20420;-78
2021/04/19 05:27:14;;;;;;;27.20;19.20;;;9.30;99.90;;;;;;5070249;28;20447;-76
2021/04/19 05:29:41;;;;;;;29.43;20.10;;;9.30;99.90;;;;;;5066564;28;20170;-76
2021/04/19 05:32:08;;;;;;;29.77;18.60;;;9.30;99.90;;;;;;5071018;28;20963;-76
2021/04/19 05:34:35;;;;;;;25.30;19.50;;;9.20;99.90;;;;;;5071574;28;21026;-76
2021/04/19 05:37:04;;;;;;;25.47;18.97;;;9.30;99.90;;;;;;5071187;28;20491;-76
2021/04/19 05:39:32;;;;;;;29.63;21.80;;;9.30;99.90;;;;;;5071349;28;20496;-76
2021/04/19 05:41:59;;;;;;;30.27;20.90;;;9.30;99.90;;;;;;5070952;28;20478;-76
2021/04/19 05:44:25;;;;;;;29.23;21.33;;;9.30;99.90;;;;;;5071218;28;20424;-76
2021/04/19 05:46:52;;;;;;;28.07;20.80;;;9.20;99.90;;;;;;5071288;28;20421;-76
2021/04/19 05:49:18;;;;;;;29.83;20.00;;;9.30;99.90;;;;;;5069950;28;20655;-76
2021/04/19 05:51:45;;;;;;;33.40;21.60;;;9.30;99.90;;;;;;5071155;28;20497;-76
2021/04/19 05:54:11;;;;;;;32.20;23.90;;;9.30;99.90;;;;;;5070156;28;20217;-77
2021/04/19 05:56:36;;;;;;;32.63;22.93;;;9.40;99.90;;;;;;5071440;28;20409;-77
2021/04/19 05:59:19;;;;;;;36.53;23.40;;;9.30;99.90;;;;;;5071347;28;20412;-77
2021/04/19 06:01:48;;;;;;;31.80;24.10;;;9.20;99.90;;;;;;5070857;28;20214;-77
2021/04/19 06:04:26;;;;;;;30.83;23.47;;;9.20;99.90;;;;;;5070238;28;20417;-77
2021/04/19 06:07:01;;;;;;;33.60;25.27;;;9.20;99.90;;;;;;5071385;28;20494;-77
2021/04/19 06:09:33;;;;;;;35.10;25.10;;;9.20;99.90;;;;;;5069776;28;20423;-77
2021/04/19 06:12:02;;;;;;;29.20;22.57;;;9.30;99.90;;;;;;5071456;28;20468;-77
2021/04/19 06:14:38;;;;;;;29.57;23.07;;;9.20;99.90;;;;;;5071332;28;20812;-77
2021/04/19 06:17:06;;;;;;;33.47;24.13;;;9.20;99.90;;;;;;5069836;28;20423;-78
2021/04/19 06:19:34;;;;;;;35.83;26.07;;;9.10;99.90;;;;;;5070990;28;20412;-78
2021/04/19 06:22:00;;;;;;;30.10;24.40;;;9.00;99.90;;;;;;5072740;28;20845;-77
2021/04/19 06:24:26;;;;;;;32.60;25.43;;;9.00;99.90;;;;;;5075171;28;20478;-77
2021/04/19 06:26:51;;;;;;;33.10;24.60;;;9.00;99.90;;;;;;5074543;28;20166;-77
2021/04/19 06:29:26;;;;;;;39.03;25.13;;;8.90;99.90;;;;;;5074674;28;20962;-77
2021/04/19 06:31:52;;;;;;;39.20;26.40;;;8.90;99.90;;;;;;5074597;28;20193;-78
2021/04/19 06:34:20;;;;;;;29.03;25.80;;;8.90;99.90;;;;;;5073516;28;21026;-77
2021/04/19 06:36:49;;;;;;;32.93;25.67;;;8.90;99.90;;;;;;5074462;28;20996;-77
2021/04/19 06:39:18;;;;;;;34.93;24.80;;;9.00;99.90;;;;;;5074374;28;20436;-77
2021/04/19 06:41:45;;;;;;;38.83;27.27;;;9.00;99.90;;;;;;5074734;28;20543;-78
2021/04/19 06:44:13;;;;;;;34.53;25.03;;;9.00;99.90;;;;;;5074166;28;20858;-77
2021/04/19 06:46:40;;;;;;;29.30;25.20;;;9.00;99.90;;;;;;5074656;28;20557;-77
2021/04/19 06:49:08;;;;;;;38.27;25.40;;;9.00;99.90;;;;;;5067829;28;20423;-78
2021/04/19 06:51:34;;;;;;;33.53;25.90;;;9.00;99.90;;;;;;5073927;28;20463;-77
2021/04/19 06:54:01;;;;;;;28.50;24.03;;;9.00;99.90;;;;;;5073944;28;20452;-78
2021/04/19 06:56:33;;;;;;;31.10;24.83;;;9.10;99.90;;;;;;5073094;28;20439;-77
2021/04/19 06:58:59;;;;;;;31.33;25.83;;;9.20;99.90;;;;;;5074332;28;20830;-78
2021/04/19 07:01:28;;;;;;;33.37;25.70;;;9.30;99.90;;;;;;5073924;28;20523;-77
2021/04/19 07:04:16;;;;;;;40.67;27.60;;;9.30;99.90;;;;;;5074264;28;20181;-77
2021/04/19 07:06:43;;;;;;;28.33;22.77;;;9.30;99.90;;;;;;5074538;28;20858;-77
2021/04/19 07:09:18;;;;;;;31.30;25.40;;;9.30;99.90;;;;;;5073939;28;20941;-78
2021/04/19 07:11:45;;;;;;;35.23;27.10;;;9.30;99.90;;;;;;5073861;28;20484;-78
2021/04/19 07:14:12;;;;;;;31.30;25.00;;;9.30;99.90;;;;;;5074106;28;20459;-78
2021/04/19 07:16:38;;;;;;;39.00;25.93;;;9.30;99.90;;;;;;5074189;28;20424;-78
2021/04/19 07:19:05;;;;;;;34.07;26.33;;;9.40;99.90;;;;;;5072224;28;20977;-78
2021/04/19 07:21:33;;;;;;;35.30;25.63;;;9.50;99.90;;;;;;5073130;28;20194;-78
2021/04/19 07:24:01;;;;;;;31.20;23.73;;;9.60;99.90;;;;;;5073868;28;20562;-78
2021/04/19 07:26:26;;;;;;;31.60;25.33;;;9.50;99.90;;;;;;5074452;28;21120;-78
2021/04/19 07:28:52;;;;;;;31.30;24.00;;;9.60;99.90;;;;;;5072563;28;20467;-78
2021/04/19 07:31:18;;;;;;;29.43;24.70;;;9.40;99.90;;;;;;5072648;28;20186;-78
2021/04/19 07:33:43;;;;;;;33.83;21.87;;;9.50;99.90;;;;;;5072911;28;20194;-78
2021/04/19 07:36:28;;;;;;;31.13;22.47;;;9.50;99.90;;;;;;5074107;28;20174;-77
2021/04/19 07:38:56;;;;;;;27.70;22.53;;;9.50;99.90;;;;;;5074163;28;20185;-79
2021/04/19 07:41:44;;;;;;;32.50;23.57;;;9.40;99.90;;;;;;5072107;28;20816;-78
2021/04/19 07:44:09;;;;;;;33.53;23.73;;;9.20;99.90;;;;;;5073209;28;20431;-78
2021/04/19 07:46:35;;;;;;;31.60;24.40;;;9.40;99.90;;;;;;5073810;28;20420;-78
2021/04/19 07:49:08;;;;;;;34.90;23.40;;;9.30;99.90;;;;;;5073112;28;20174;-78
2021/04/19 07:51:35;;;;;;;31.53;24.23;;;9.50;99.90;;;;;;5072109;28;20537;-78
2021/04/19 07:54:22;;;;;;;33.20;23.40;;;9.50;99.90;;;;;;5073371;28;20553;-78
2021/04/19 07:57:05;;;;;;;34.70;23.70;;;9.30;99.90;;;;;;5073702;28;20959;-78
2021/04/19 07:59:34;;;;;;;33.40;24.00;;;9.30;99.90;;;;;;5073304;28;20503;-78
2021/04/19 08:02:01;;;;;;;31.87;23.97;;;9.30;99.90;;;;;;5074329;28;20424;-78
2021/04/19 08:04:27;;;;;;;35.20;26.27;;;9.30;99.90;;;;;;5073828;28;20428;-77
2021/04/19 08:06:53;;;;;;;28.20;23.23;;;9.50;99.90;;;;;;5073104;28;20413;-78
2021/04/19 08:09:28;;;;;;;30.87;24.20;;;9.50;99.90;;;;;;5072225;28;20451;-78
2021/04/19 08:11:59;;;;;;;34.47;25.03;;;9.50;99.90;;;;;;5072809;28;20197;-78
2021/04/19 08:14:31;;;;;;;31.83;24.63;;;9.70;99.90;;;;;;5071463;28;20460;-77
2021/04/19 08:17:09;;;;;;;29.20;22.47;;;9.90;99.90;;;;;;5072545;28;20423;-78
2021/04/19 08:19:38;;;;;;;32.20;22.80;;;10.10;99.90;;;;;;5072176;28;20420;-78
2021/04/19 08:22:17;;;;;;;31.60;23.37;;;10.00;99.90;;;;;;5071226;28;20455;-78
2021/04/19 08:24:44;;;;;;;31.00;21.10;;;10.20;99.90;;;;;;5072674;28;20459;-78
2021/04/19 08:27:19;;;;;;;23.80;18.40;;;10.30;99.90;;;;;;5072168;28;20750;-78
2021/04/19 08:29:46;;;;;;;29.07;21.43;;;10.40;99.90;;;;;;5071832;28;20518;-78
2021/04/19 08:32:14;;;;;;;27.83;22.57;;;10.70;99.90;;;;;;5072389;28;20436;-78
2021/04/19 08:34:41;;;;;;;27.13;19.67;;;10.80;99.90;;;;;;5072357;28;20452;-78
2021/04/19 08:37:09;;;;;;;27.00;21.53;;;11.10;99.90;;;;;;5072047;28;20447;-78
2021/04/19 08:39:37;;;;;;;28.67;22.87;;;11.20;99.90;;;;;;5072095;28;20466;-78
2021/04/19 08:42:03;;;;;;;31.27;22.83;;;11.50;99.90;;;;;;5071819;28;20544;-78
2021/04/19 08:44:34;;;;;;;28.23;23.57;;;11.60;99.90;;;;;;5072208;28;20514;-78
2021/04/19 08:47:02;;;;;;;27.67;22.30;;;11.70;99.90;;;;;;5071863;28;20506;-78
2021/04/19 08:49:29;;;;;;;30.57;24.07;;;11.80;99.90;;;;;;5071617;28;20775;-78
2021/04/19 08:51:55;;;;;;;36.03;26.33;;;11.90;99.90;;;;;;5072309;28;20444;-79
2021/04/19 08:54:24;;;;;;;39.70;26.83;;;12.00;99.90;;;;;;5072237;28;20460;-78
2021/04/19 08:56:51;;;;;;;33.10;25.90;;;12.10;99.90;;;;;;5072258;28;20466;-78
2021/04/19 08:59:18;;;;;;;30.63;25.40;;;12.30;99.90;;;;;;5071632;28;20447;-78
2021/04/19 09:01:45;;;;;;;34.83;25.30;;;12.40;99.90;;;;;;5072139;28;20451;-78
2021/04/19 09:04:11;;;;;;;34.97;27.13;;;12.40;99.90;;;;;;5072032;28;20458;-78
2021/04/19 09:06:45;;;;;;;36.07;27.37;;;12.50;99.90;;;;;;5070664;28;20447;-78
2021/04/19 09:09:33;;;;;;;29.70;26.57;;;12.20;99.90;;;;;;5071527;28;20706;-78
2021/04/19 09:12:10;;;;;;;38.40;25.87;;;12.40;99.90;;;;;;5070672;28;20781;-78
2021/04/19 09:14:40;;;;;;;33.40;28.13;;;12.50;99.90;;;;;;5072025;28;20465;-78
2021/04/19 09:17:07;;;;;;;39.70;29.30;;;12.60;99.90;;;;;;5066906;28;20442;-78
2021/04/19 09:19:35;;;;;;;37.47;28.93;;;12.50;99.90;;;;;;5071191;28;20465;-78
2021/04/19 09:22:07;;;;;;;34.13;28.67;;;12.00;99.90;;;;;;5071824;28;20912;-78
2021/04/19 09:24:59;;;;;;;40.00;29.47;;;11.80;99.90;;;;;;5071841;28;20474;-78
2021/04/19 09:27:56;;;;;;;32.43;27.50;;;12.00;99.90;;;;;;5060047;28;20499;-78
2021/04/19 09:30:28;;;;;;;33.27;26.83;;;12.20;99.90;;;;;;5063051;28;20783;-78
2021/04/19 09:33:03;;;;;;;38.73;29.73;;;12.20;99.90;;;;;;5069646;28;20798;-77
2021/04/19 09:35:41;;;;;;;38.03;30.33;;;12.40;99.90;;;;;;5070248;28;20910;-78
2021/04/19 09:38:10;;;;;;;30.30;25.90;;;12.40;99.90;;;;;;5074810;28;20407;-81
2021/04/19 09:40:47;;;;;;;44.23;31.30;;;12.30;99.90;;;;;;5075039;28;20473;-81
2021/04/19 09:43:28;;;;;;;35.37;28.97;;;12.30;99.90;;;;;;5075292;28;20450;-82
2021/04/19 09:45:55;;;;;;;43.70;31.17;;;12.30;99.90;;;;;;5075761;28;20417;-81
2021/04/19 09:48:38;;;;;;;33.73;28.50;;;12.40;99.90;;;;;;5075308;28;20428;-82
2021/04/19 09:51:28;;;;;;;35.70;28.47;;;12.30;99.90;;;;;;5075215;28;20450;-82
2021/04/19 09:53:56;;;;;;;40.20;29.20;;;12.40;99.90;;;;;;5075819;28;20478;-82
2021/04/19 09:56:32;;;;;;;34.33;28.30;;;12.40;99.90;;;;;;5078471;28;20424;-81
2021/04/19 09:58:58;;;;;;;33.63;29.80;;;12.40;99.90;;;;;;5083800;28;20835;-80
2021/04/19 10:01:26;;;;;;;36.50;28.67;;;12.40;99.90;;;;;;5083507;28;20428;-80
2021/04/19 10:03:54;;;;;;;37.57;29.57;;;12.60;99.90;;;;;;5083050;28;20427;-80
2021/04/19 10:06:22;;;;;;;36.17;30.60;;;12.70;99.90;;;;;;5081622;28;20849;-82
2021/04/19 10:08:50;;;;;;;26.30;21.00;;;12.90;99.90;;;;;;5076007;28;20409;-81
2021/04/19 10:11:21;;;;;;;34.77;30.20;;;13.20;99.90;;;;;;5075792;28;20420;-82
2021/04/19 10:13:47;;;;;;;35.03;29.33;;;13.40;99.90;;;;;;5077436;28;20487;-82
2021/04/19 10:16:14;;;;;;;31.43;27.40;;;13.40;99.90;;;;;;5065475;28;20413;-82
2021/04/19 10:18:41;;;;;;;35.03;27.57;;;13.40;99.90;;;;;;5080649;28;20515;-81
2021/04/19 10:21:09;;;;;;;37.00;28.63;;;13.50;99.90;;;;;;5078544;28;20997;-81
2021/04/19 10:23:43;;;;;;;31.87;28.43;;;13.40;99.90;;;;;;5072004;28;20419;-82
2021/04/19 10:26:10;;;;;;;39.30;28.80;;;13.40;99.90;;;;;;5068961;28;20488;-82
2021/04/19 10:28:38;;;;;;;33.67;28.83;;;13.20;99.90;;;;;;5076477;28;20431;-82
2021/04/19 10:31:13;;;;;;;40.20;32.70;;;13.20;99.90;;;;;;5075788;28;20408;-82
2021/04/19 10:33:40;;;;;;;46.33;32.70;;;13.10;99.90;;;;;;5074390;28;20497;-80
2021/04/19 10:36:22;;;;;;;40.80;33.80;;;13.10;99.90;;;;;;5074367;28;20466;-81
2021/04/19 10:38:52;;;;;;;43.40;32.67;;;13.00;99.90;;;;;;5075724;28;20415;-81
2021/04/19 10:41:32;;;;;;;39.00;33.13;;;13.00;99.90;;;;;;5077496;28;20460;-81
2021/04/19 10:43:59;;;;;;;40.93;33.53;;;12.90;99.90;;;;;;5076125;28;20450;-82
2021/04/19 10:46:29;;;;;;;40.90;32.87;;;12.90;99.90;;;;;;5076500;28;20763;-81
2021/04/19 10:48:57;;;;;;;41.00;32.57;;;12.90;99.90;;;;;;5077372;28;20419;-81
2021/04/19 10:51:33;;;;;;;52.93;35.70;;;13.00;99.90;;;;;;5085876;28;20482;-80
2021/04/19 10:54:04;;;;;;;45.67;34.07;;;13.10;99.90;;;;;;5085883;28;20563;-83
2021/04/19 10:56:29;;;;;;;38.87;31.33;;;13.00;99.90;;;;;;5086086;28;20489;-81
2021/04/19 10:59:16;;;;;;;41.37;32.70;;;13.10;99.90;;;;;;5085006;28;20420;-80
2021/04/19 11:01:43;;;;;;;38.40;32.97;;;13.30;99.90;;;;;;5072467;28;20469;-81
2021/04/19 11:04:10;;;;;;;39.27;34.77;;;13.40;99.90;;;;;;5081299;28;20416;-81
2021/04/19 11:06:38;;;;;;;36.10;30.20;;;13.50;99.90;;;;;;5080849;28;20928;-81
2021/04/19 11:09:08;;;;;;;36.57;29.07;;;13.60;99.90;;;;;;5076930;28;20416;-82
2021/04/19 11:11:39;;;;;;;40.47;30.70;;;13.90;99.90;;;;;;5075339;28;20941;-81
2021/04/19 11:14:25;;;;;;;33.87;29.27;;;14.00;99.90;;;;;;5076305;28;20444;-81
2021/04/19 11:17:05;;;;;;;27.23;24.43;;;14.50;99.90;;;;;;5075403;28;20511;-81
2021/04/19 11:19:37;;;;;;;30.63;27.10;;;15.00;99.90;;;;;;5061975;28;20424;-79
2021/04/19 11:22:31;;;;;;;31.57;27.23;;;15.10;99.90;;;;;;5074228;28;20440;-79
2021/04/19 11:25:21;;;;;;;33.80;27.90;;;16.00;99.90;;;;;;5075802;28;20511;-79
2021/04/19 11:27:49;;;;;;;29.20;26.20;;;16.80;99.90;;;;;;5078238;28;20796;-79
2021/04/19 11:30:26;;;;;;;27.63;24.03;;;17.40;99.90;;;;;;5080531;28;20784;-79
2021/04/19 11:33:12;;;;;;;27.93;24.90;;;18.10;99.90;;;;;;5079442;28;20440;-79
2021/04/19 11:35:44;;;;;;;27.90;24.90;;;17.80;99.90;;;;;;5077537;28;20455;-78
2021/04/19 11:38:14;;;;;;;22.87;20.47;;;18.10;99.90;;;;;;5077100;28;20901;-78
2021/04/19 11:40:41;;;;;;;23.63;21.13;;;18.30;99.90;;;;;;5075112;28;20522;-79
2021/04/19 11:43:28;;;;;;;21.63;19.53;;;18.90;99.90;;;;;;5075225;28;20924;-78
2021/04/19 11:46:08;;;;;;;18.40;16.60;;;19.00;99.90;;;;;;5074649;28;20416;-78
2021/04/19 11:48:36;;;;;;;23.70;21.50;;;19.70;99.90;;;;;;5074638;28;20469;-79
2021/04/19 11:51:04;;;;;;;21.80;19.60;;;20.10;99.90;;;;;;5073300;28;20430;-78
2021/04/19 11:53:31;;;;;;;24.60;22.00;;;20.80;99.90;;;;;;5074560;28;20427;-78
2021/04/19 11:55:58;;;;;;;22.83;19.87;;;21.20;99.90;;;;;;5073047;28;20416;-78
2021/04/19 11:58:24;;;;;;;21.20;19.20;;;21.10;99.90;;;;;;5073670;28;20419;-78
2021/04/19 12:00:54;;;;;;;20.93;19.00;;;21.70;99.90;;;;;;5074199;28;20503;-77
2021/04/19 12:03:21;;;;;;;20.77;18.60;;;22.10;99.90;;;;;;5058210;28;20436;-77
2021/04/19 12:05:46;;;;;;;21.63;19.50;;;21.90;98.10;;;;;;5073248;28;20500;-77
2021/04/19 12:08:12;;;;;;;20.10;18.30;;;21.60;96.40;;;;;;5074344;28;20508;-77
2021/04/19 12:10:39;;;;;;;21.10;19.00;;;21.20;95.30;;;;;;5077811;28;20181;-78
2021/04/19 12:13:05;;;;;;;20.80;18.70;;;21.50;97.10;;;;;;5078200;28;20197;-78
2021/04/19 12:15:31;;;;;;;17.80;15.93;;;21.30;92.10;;;;;;5076461;28;20539;-77
2021/04/19 12:17:56;;;;;;;19.67;17.67;;;21.50;99.90;;;;;;5073154;28;20527;-77
2021/04/19 12:20:22;;;;;;;21.40;19.20;;;22.00;99.90;;;;;;5073304;28;20420;-77
2021/04/19 12:22:48;;;;;;;16.50;14.80;;;22.00;96.30;;;;;;5073783;28;20190;-78
2021/04/19 12:25:14;;;;;;;16.90;15.30;;;21.80;95.00;;;;;;5073072;28;20231;-79
2021/04/19 12:27:41;;;;;;;21.50;18.50;;;22.20;93.60;;;;;;5073203;28;20425;-78
2021/04/19 12:30:07;;;;;;;20.43;18.20;;;22.20;90.80;;;;;;5073273;28;20421;-78
2021/04/19 12:32:33;;;;;;;22.47;20.20;;;22.20;87.20;;;;;;5072127;28;20460;-79
2021/04/19 12:34:59;;;;;;;17.70;16.00;;;22.50;88.90;;;;;;5072768;28;20498;-78
2021/04/19 12:37:24;;;;;;;19.93;18.10;;;21.60;83.60;;;;;;5074209;28;20438;-78
2021/04/19 12:39:50;;;;;;;25.73;23.20;;;21.40;93.20;;;;;;5073443;28;20185;-78
2021/04/19 12:42:16;;;;;;;21.33;19.07;;;21.60;91.60;;;;;;5076896;28;20209;-79
2021/04/19 12:44:41;;;;;;;17.40;15.50;;;21.30;93.80;;;;;;5076375;28;20185;-79
2021/04/19 12:47:07;;;;;;;16.10;14.50;;;20.80;83.40;;;;;;5078894;28;20258;-79